Time;durP1;ratioP1;P1;durP2;ratioP2;P2;SDS_P1;SDS_P2;PMS_P1;PMS_P2;Temp;Humidity;BMP_temperature;BMP_pressure;BME280_temperature;BME280_humidity;BME280_pressure;Samples;Min_cycle;Max_cycle;Signal;HPM_P1;HPM_P2
2021/01/18 00:01:25;;;;;;;4.93;2.00;;;;;;;4.40;83.52;101788.44;4974160;28;20485;-49
2021/01/18 00:03:51;;;;;;;4.07;2.08;;;;;;;4.43;83.48;101782.41;4984888;28;20149;-53
2021/01/18 00:06:18;;;;;;;4.32;2.53;;;;;;;4.44;83.47;101778.59;4973985;28;20050;-50
2021/01/18 00:08:46;;;;;;;5.05;1.75;;;;;;;4.44;83.73;101773.09;4992675;28;20133;-51
2021/01/18 00:11:14;;;;;;;4.75;1.92;;;;;;;4.45;83.66;101769.28;4993779;28;20564;-50
2021/01/18 00:13:43;;;;;;;6.07;1.63;;;;;;;4.45;83.96;101769.28;4993714;28;20046;-50
2021/01/18 00:16:12;;;;;;;3.30;1.38;;;;;;;4.46;83.77;101770.88;4993398;28;20042;-50
2021/01/18 00:18:39;;;;;;;4.60;1.85;;;;;;;4.46;84.05;101770.88;4993215;28;20481;-52
2021/01/18 00:21:05;;;;;;;4.10;2.50;;;;;;;4.47;83.93;101767.06;4994094;28;20074;-48
2021/01/18 00:23:31;;;;;;;6.25;3.03;;;;;;;4.47;83.74;101769.81;4989471;28;20104;-49
2021/01/18 00:25:58;;;;;;;7.90;2.45;;;;;;;4.48;83.58;101760.47;4988176;28;20523;-49
2021/01/18 00:28:27;;;;;;;3.55;1.63;;;;;;;4.50;83.69;101758.28;4989750;28;20035;-51
2021/01/18 00:30:54;;;;;;;3.60;2.38;;;;;;;4.49;83.71;101748.41;4993165;28;20046;-49
2021/01/18 00:33:20;;;;;;;5.75;2.25;;;;;;;4.49;83.83;101745.66;4992276;28;20046;-49
2021/01/18 00:35:47;;;;;;;10.73;3.58;;;;;;;4.51;83.71;101746.19;4993609;28;20436;-50
2021/01/18 00:38:13;;;;;;;4.93;1.98;;;;;;;4.50;83.89;101744.56;4992270;28;20496;-51
2021/01/18 00:40:39;;;;;;;5.93;2.03;;;;;;;4.47;83.62;101745.13;4993092;28;20755;-51
2021/01/18 00:43:05;;;;;;;3.53;1.33;;;;;;;4.45;83.97;101736.38;4991415;28;20108;-50
2021/01/18 00:45:32;;;;;;;6.97;3.65;;;;;;;4.41;83.90;101740.75;4992435;28;20128;-49
2021/01/18 00:47:58;;;;;;;3.30;1.95;;;;;;;4.40;83.90;101734.44;4992806;28;20050;-48
2021/01/18 00:50:27;;;;;;;6.75;2.38;;;;;;;4.44;84.15;101740.19;4991949;28;20073;-49
2021/01/18 00:52:55;;;;;;;3.13;1.77;;;;;;;4.46;83.99;101721.53;4974877;28;20049;-49
2021/01/18 00:55:23;;;;;;;8.10;2.05;;;;;;;4.44;83.67;101731.97;4991400;28;20081;-51
2021/01/18 00:57:50;;;;;;;5.15;1.92;;;;;;;4.41;83.65;101725.13;4988474;28;20129;-52
2021/01/18 01:00:17;;;;;;;3.60;2.10;;;;;;;4.40;84.10;101711.69;4990946;28;20074;-52
2021/01/18 01:02:46;;;;;;;7.40;1.92;;;;;;;4.39;83.78;101726.50;4992863;28;20054;-50
2021/01/18 01:05:16;;;;;;;5.50;2.08;;;;;;;4.40;83.96;101714.44;4992331;28;20125;-51
2021/01/18 01:07:52;;;;;;;7.20;2.80;;;;;;;4.41;84.25;101716.06;4977684;28;20042;-51
2021/01/18 01:10:24;;;;;;;5.25;1.42;;;;;;;4.43;84.28;101720.19;4992903;28;20550;-51
2021/01/18 01:13:05;;;;;;;6.20;2.20;;;;;;;4.48;83.89;101720.16;4991199;28;20092;-49
2021/01/18 01:15:33;;;;;;;3.22;1.48;;;;;;;4.52;84.37;101721.25;4992027;28;20042;-49
2021/01/18 01:18:00;;;;;;;4.25;1.70;;;;;;;4.53;84.06;101711.91;4975819;28;20058;-49
2021/01/18 01:20:26;;;;;;;3.78;1.95;;;;;;;4.56;84.01;101710.53;4971357;28;20492;-49
2021/01/18 01:22:54;;;;;;;5.30;1.83;;;;;;;4.60;83.97;101712.44;4986396;28;20145;-52
2021/01/18 01:25:22;;;;;;;5.50;2.25;;;;;;;4.61;84.02;101711.31;4990161;28;20378;-49
2021/01/18 01:27:49;;;;;;;3.38;1.90;;;;;;;4.63;84.10;101711.06;4990156;28;20054;-51
2021/01/18 01:30:18;;;;;;;3.53;2.22;;;;;;;4.66;83.97;101708.53;4972543;28;20088;-50
2021/01/18 01:32:47;;;;;;;3.70;1.45;;;;;;;4.69;83.82;101697.00;4988224;28;20137;-49
2021/01/18 01:35:16;;;;;;;6.93;1.92;;;;;;;4.72;83.76;101698.38;4990058;28;20124;-50
2021/01/18 01:37:43;;;;;;;4.22;2.22;;;;;;;4.73;83.84;101692.63;4991660;28;20049;-50
2021/01/18 01:40:13;;;;;;;6.15;2.08;;;;;;;4.76;83.94;101693.97;4975027;28;20097;-50
2021/01/18 01:42:41;;;;;;;7.68;2.85;;;;;;;4.79;83.74;101707.13;4990991;28;20497;-52
2021/01/18 01:45:10;;;;;;;5.88;1.98;;;;;;;4.82;83.84;101692.81;4991613;28;20066;-48
2021/01/18 01:47:36;;;;;;;5.60;1.85;;;;;;;4.83;83.71;101692.56;4991740;28;20558;-49
2021/01/18 01:50:15;;;;;;;8.80;1.67;;;;;;;4.82;83.65;101684.59;4991306;28;20077;-48
2021/01/18 01:52:48;;;;;;;5.13;1.48;;;;;;;4.84;83.27;101679.66;4975004;28;20050;-55
2021/01/18 01:55:34;;;;;;;8.77;2.05;;;;;;;4.83;83.71;101683.50;4981962;28;20132;-50
2021/01/18 01:58:02;;;;;;;7.15;1.77;;;;;;;4.84;83.31;101663.19;4991813;28;20046;-51
2021/01/18 02:00:36;;;;;;;4.38;1.60;;;;;;;4.81;83.28;101675.56;4991821;28;20039;-48
2021/01/18 02:03:10;;;;;;;4.10;1.70;;;;;;;4.76;83.27;101672.84;4988451;28;20054;-48
2021/01/18 02:05:37;;;;;;;4.30;1.25;;;;;;;4.71;83.13;101663.84;4991774;28;20493;-48
2021/01/18 02:08:06;;;;;;;3.25;1.70;;;;;;;4.69;83.50;101666.00;4987049;28;20082;-54
2021/01/18 02:10:34;;;;;;;7.43;1.77;;;;;;;4.66;83.26;101661.13;4991854;28;20464;-49
2021/01/18 02:13:41;;;;;;;9.23;2.20;;;;;;;4.63;83.31;101659.75;4990877;28;20046;-49
2021/01/18 02:16:29;;;;;;;3.67;1.83;;;;;;;4.64;83.46;101657.81;4991024;28;20488;-49
2021/01/18 02:19:32;;;;;;;4.32;1.40;;;;;;;4.64;83.77;101663.31;4991339;28;20048;-51
2021/01/18 02:22:17;;;;;;;3.50;1.48;;;;;;;4.66;83.66;101655.63;4991517;28;20104;-51
2021/01/18 02:25:20;;;;;;;4.82;2.65;;;;;;;4.65;83.54;101652.06;4989705;28;20077;-51
2021/01/18 02:28:04;;;;;;;;;;;;;;;4.65;83.40;101665.78;4991409;28;20096;-56
2021/01/18 02:30:31;;;;;;;5.18;1.70;;;;;;;4.63;83.30;101667.16;4992308;28;20025;-50
2021/01/18 02:33:20;;;;;;;4.72;1.80;;;;;;;4.59;83.28;101671.56;4985059;28;20105;-50
2021/01/18 02:36:05;;;;;;;6.75;1.60;;;;;;;4.57;83.48;101662.81;4984913;28;20382;-50
2021/01/18 02:38:42;;;;;;;6.07;2.35;;;;;;;4.55;83.44;101659.53;4991070;28;20085;-52
2021/01/18 02:41:23;;;;;;;5.70;2.00;;;;;;;4.51;83.43;101664.75;4990413;28;20049;-52
2021/01/18 02:44:03;;;;;;;6.07;1.98;;;;;;;4.49;83.87;101661.47;4984820;28;20042;-52
2021/01/18 02:46:31;;;;;;;5.28;1.73;;;;;;;4.48;83.54;101664.50;4991655;28;20093;-51
2021/01/18 02:49:01;;;;;;;3.80;1.63;;;;;;;4.49;83.58;101652.44;4988291;28;20042;-49
2021/01/18 02:51:28;;;;;;;3.38;1.58;;;;;;;4.50;83.39;101656.81;4973995;28;20501;-50
2021/01/18 02:54:03;;;;;;;4.18;2.05;;;;;;;4.49;83.74;101646.94;4970339;28;20049;-51
2021/01/18 02:56:35;;;;;;;6.85;1.60;;;;;;;4.48;83.38;101650.78;4971954;28;20102;-50
2021/01/18 02:59:03;;;;;;;6.05;2.30;;;;;;;4.45;83.67;101657.66;4969542;28;20081;-50
2021/01/18 03:01:35;;;;;;;3.50;2.42;;;;;;;4.42;83.31;101660.16;4971608;28;20046;-49
2021/01/18 03:04:06;;;;;;;2.95;1.88;;;;;;;4.40;83.43;101656.84;4973925;28;20421;-53
2021/01/18 03:06:54;;;;;;;3.28;1.58;;;;;;;4.38;83.61;101659.06;4956281;29;20119;-53
2021/01/18 03:09:25;;;;;;;4.72;1.83;;;;;;;4.37;83.62;101657.44;4960706;28;21664;-56
2021/01/18 03:12:01;;;;;;;4.50;1.70;;;;;;;4.39;83.86;101660.72;4975081;28;20125;-53
2021/01/18 03:14:40;;;;;;;3.58;1.30;;;;;;;4.42;83.75;101662.91;4962218;28;20461;-52
2021/01/18 03:17:13;;;;;;;7.18;1.38;;;;;;;4.47;83.66;101662.88;4959783;28;20039;-54
2021/01/18 03:19:44;;;;;;;5.75;1.77;;;;;;;4.52;83.96;101660.09;4969584;28;20035;-52
2021/01/18 03:22:21;;;;;;;3.67;1.25;;;;;;;4.53;83.36;101656.22;4973452;28;20050;-51
2021/01/18 03:24:51;;;;;;;3.92;1.40;;;;;;;4.54;83.21;101653.22;4975043;28;20039;-51
2021/01/18 03:27:18;;;;;;;6.97;1.55;;;;;;;4.51;83.33;101651.03;4973843;28;20493;-56
2021/01/18 03:29:49;;;;;;;4.35;1.40;;;;;;;4.47;83.34;101646.41;4974572;28;20157;-51
2021/01/18 03:32:16;;;;;;;4.07;1.65;;;;;;;4.44;83.14;101657.94;4956674;28;20046;-54
2021/01/18 03:34:43;;;;;;;2.75;1.42;;;;;;;4.41;83.02;101658.50;4969053;28;20043;-53
2021/01/18 03:37:09;;;;;;;2.65;1.60;;;;;;;4.40;83.33;101641.22;4974981;28;20074;-50
2021/01/18 03:39:35;;;;;;;8.50;1.17;;;;;;;4.44;83.44;101649.72;4973949;28;20070;-53
2021/01/18 03:42:02;;;;;;;3.53;1.33;;;;;;;4.44;83.43;101647.81;4974723;28;20086;-52
2021/01/18 03:44:28;;;;;;;4.57;1.83;;;;;;;4.43;83.21;101654.38;4972022;28;20494;-54
2021/01/18 03:46:54;;;;;;;3.35;1.50;;;;;;;4.45;83.44;101654.91;4974121;28;20057;-49
2021/01/18 03:49:21;;;;;;;7.75;1.80;;;;;;;4.45;83.44;101649.44;4976666;28;20409;-50
2021/01/18 03:51:47;;;;;;;2.47;1.13;;;;;;;4.47;83.62;101654.66;4976434;28;20042;-50
2021/01/18 03:54:13;;;;;;;5.43;1.52;;;;;;;4.46;83.49;101647.50;4993751;28;20042;-50
2021/01/18 03:56:41;;;;;;;6.63;1.70;;;;;;;4.46;83.60;101639.28;4993880;28;20043;-50
2021/01/18 03:59:08;;;;;;;8.18;2.05;;;;;;;4.45;83.29;101632.97;4993343;28;20066;-49
2021/01/18 04:01:39;;;;;;;3.75;1.40;;;;;;;4.43;83.71;101628.88;4993822;28;20042;-51
2021/01/18 04:04:06;;;;;;;2.90;1.33;;;;;;;4.44;83.28;101636.00;4993831;28;20936;-51
2021/01/18 04:06:39;;;;;;;4.47;2.00;;;;;;;4.43;83.32;101624.22;4991602;28;20121;-53
2021/01/18 04:09:06;;;;;;;5.90;1.38;;;;;;;4.43;83.56;101623.41;4992557;28;20042;-53
2021/01/18 04:11:32;;;;;;;6.63;1.80;;;;;;;4.45;83.59;101622.00;4993160;28;20046;-52
2021/01/18 04:13:59;;;;;;;3.00;1.08;;;;;;;4.43;83.24;101607.78;4981865;28;20078;-49
2021/01/18 04:16:25;;;;;;;5.45;3.08;;;;;;;4.42;83.39;101610.81;4992939;28;20488;-54
2021/01/18 04:18:52;;;;;;;4.13;1.02;;;;;;;4.40;83.56;101610.25;4992920;28;20060;-50
2021/01/18 04:21:18;;;;;;;5.28;1.20;;;;;;;4.40;83.14;101613.00;4965506;28;20069;-51
2021/01/18 04:23:45;;;;;;;6.88;1.38;;;;;;;4.37;82.80;101611.63;4988247;28;20134;-53
2021/01/18 04:26:13;;;;;;;5.78;1.85;;;;;;;4.33;82.73;101605.09;4980915;28;20038;-50
2021/01/18 04:28:40;;;;;;;2.50;0.88;;;;;;;4.30;82.93;101603.75;4971999;28;20053;-54
2021/01/18 04:31:07;;;;;;;2.97;0.80;;;;;;;4.28;83.07;101597.72;4975329;28;20112;-50
2021/01/18 04:33:33;;;;;;;2.95;1.05;;;;;;;4.28;83.04;101594.97;4993463;28;20621;-53
2021/01/18 04:35:59;;;;;;;5.25;1.10;;;;;;;4.30;83.44;101594.69;4991948;28;20415;-51
2021/01/18 04:38:26;;;;;;;5.45;1.30;;;;;;;4.32;83.20;101589.72;4974151;28;20046;-49
2021/01/18 04:40:53;;;;;;;5.78;0.93;;;;;;;4.34;83.22;101582.06;4992653;28;20507;-53
2021/01/18 04:43:19;;;;;;;1.30;0.73;;;;;;;4.38;83.01;101587.78;4991605;28;20038;-51
2021/01/18 04:45:48;;;;;;;3.42;0.80;;;;;;;4.40;83.09;101583.66;4975902;28;20354;-52
2021/01/18 04:48:16;;;;;;;4.47;1.02;;;;;;;4.45;83.06;101582.81;4985848;28;20085;-50
2021/01/18 04:50:42;;;;;;;4.68;0.65;;;;;;;4.48;83.33;101584.97;4991693;28;20063;-49
2021/01/18 04:53:14;;;;;;;8.90;1.20;;;;;;;4.49;82.77;101590.19;4992486;28;20042;-54
2021/01/18 04:55:44;;;;;;;2.03;1.00;;;;;;;4.51;82.74;101590.72;4992898;28;20129;-49
2021/01/18 04:58:15;;;;;;;2.95;1.00;;;;;;;4.53;82.82;101591.25;4990843;28;20054;-50
2021/01/18 05:00:46;;;;;;;4.35;1.48;;;;;;;4.56;82.74;101585.19;4976034;28;20061;-53
2021/01/18 05:03:16;;;;;;;4.50;0.80;;;;;;;4.57;82.96;101581.38;4991568;28;20034;-53
2021/01/18 05:06:06;;;;;;;2.15;0.80;;;;;;;4.58;82.52;101582.19;4992460;28;20035;-51
2021/01/18 05:09:01;;;;;;;3.47;0.85;;;;;;;4.58;82.50;101579.44;4992419;28;20129;-50
2021/01/18 05:11:28;;;;;;;3.53;1.10;;;;;;;4.60;82.83;101577.22;4990664;28;20066;-50
2021/01/18 05:14:01;;;;;;;2.47;0.73;;;;;;;4.60;82.37;101574.50;4992094;28;20058;-53
2021/01/18 05:16:35;;;;;;;7.20;1.42;;;;;;;4.59;82.70;101570.09;4990275;28;20492;-49
2021/01/18 05:19:26;;;;;;;3.00;0.90;;;;;;;4.60;82.59;101569.00;4992021;28;20501;-52
2021/01/18 05:21:53;;;;;;;4.35;0.85;;;;;;;4.62;82.58;101566.78;4982992;28;20126;-48
2021/01/18 05:24:20;;;;;;;5.00;1.08;;;;;;;4.61;82.53;101567.88;4987247;28;20074;-49
2021/01/18 05:27:04;;;;;;;1.92;0.88;;;;;;;4.59;82.51;101551.72;4989424;28;20081;-50
2021/01/18 05:29:31;;;;;;;5.55;0.88;;;;;;;4.60;82.63;101549.81;4991285;28;20098;-49
2021/01/18 05:31:58;;;;;;;6.80;0.80;;;;;;;4.61;82.45;101548.69;4991234;28;20049;-52
2021/01/18 05:34:28;;;;;;;5.53;1.20;;;;;;;4.62;82.67;101539.38;4991779;28;20207;-50
2021/01/18 05:36:55;;;;;;;4.40;1.20;;;;;;;4.63;82.27;101541.00;4991280;28;20142;-50
2021/01/18 05:39:32;;;;;;;4.15;0.68;;;;;;;4.62;82.59;101531.97;4992436;28;20050;-49
2021/01/18 05:41:59;;;;;;;5.53;0.80;;;;;;;4.62;82.30;101534.72;4992005;28;20485;-51
2021/01/18 05:44:34;;;;;;;4.07;0.70;;;;;;;4.64;82.28;101526.19;4991096;28;20104;-50
2021/01/18 05:47:05;;;;;;;6.95;1.33;;;;;;;4.65;82.16;101527.81;4976905;28;20483;-53
2021/01/18 05:49:42;;;;;;;6.55;1.13;;;;;;;4.64;82.28;101537.16;4991129;28;20050;-52
2021/01/18 05:52:29;;;;;;;8.25;1.25;;;;;;;4.66;81.94;101534.97;4991075;28;20092;-50
2021/01/18 05:55:24;;;;;;;4.90;0.68;;;;;;;4.65;81.84;101533.31;4991367;28;20046;-50
2021/01/18 05:58:02;;;;;;;4.40;0.93;;;;;;;4.65;82.29;101534.13;4991429;28;20066;-50
2021/01/18 06:00:32;;;;;;;1.20;0.57;;;;;;;4.66;81.80;101540.44;4974080;28;20468;-51
2021/01/18 06:03:05;;;;;;;4.85;0.73;;;;;;;4.67;82.09;101536.59;4989676;28;20383;-51
2021/01/18 06:05:33;;;;;;;2.80;0.80;;;;;;;4.68;81.76;101539.06;4989563;28;20050;-50
2021/01/18 06:08:17;;;;;;;5.57;1.10;;;;;;;4.67;81.57;101539.31;4956833;28;20054;-49
2021/01/18 06:10:47;;;;;;;1.48;0.52;;;;;;;4.68;81.92;101538.22;4985463;28;20046;-48
2021/01/18 06:13:33;;;;;;;6.07;0.90;;;;;;;4.69;81.66;101528.88;4990766;28;20038;-52
2021/01/18 06:15:59;;;;;;;4.63;0.85;;;;;;;4.71;81.85;101537.66;4991580;28;20030;-49
2021/01/18 06:18:27;;;;;;;3.72;0.73;;;;;;;4.72;81.42;101529.13;4991444;28;20081;-49
2021/01/18 06:20:59;;;;;;;7.47;0.85;;;;;;;4.73;81.51;101530.78;4974176;28;20054;-51
2021/01/18 06:23:25;;;;;;;5.13;0.93;;;;;;;4.74;81.29;101532.41;4989483;28;20042;-53
2021/01/18 06:25:53;;;;;;;2.13;0.82;;;;;;;4.74;81.52;101531.56;4991689;28;20303;-51
2021/01/18 06:28:36;;;;;;;3.53;0.60;;;;;;;4.75;81.60;101536.78;4991402;28;20042;-48
2021/01/18 06:31:09;;;;;;;5.88;0.98;;;;;;;4.77;81.09;101536.50;4991052;28;20125;-51
2021/01/18 06:33:37;;;;;;;3.80;0.88;;;;;;;4.78;81.48;101527.16;4985828;28;20050;-50
2021/01/18 06:36:15;;;;;;;2.70;0.80;;;;;;;4.79;81.06;101529.59;4991508;28;20074;-47
2021/01/18 06:38:48;;;;;;;11.60;1.48;;;;;;;4.81;81.31;101526.59;4995632;28;20157;-51
2021/01/18 06:41:22;;;;;;;4.50;0.82;;;;;;;4.82;81.25;101517.25;4991118;28;20439;-51
2021/01/18 06:43:49;;;;;;;2.83;0.93;;;;;;;4.84;81.37;101515.06;4983091;28;20121;-52
2021/01/18 06:46:21;;;;;;;4.80;0.93;;;;;;;4.84;81.35;101524.06;4979561;28;20488;-51
2021/01/18 06:48:51;;;;;;;2.70;0.80;;;;;;;4.84;81.21;101515.06;4995381;28;20034;-52
2021/01/18 06:51:23;;;;;;;4.75;1.00;;;;;;;4.83;81.07;101511.47;4977662;28;20049;-50
2021/01/18 06:53:51;;;;;;;4.27;1.20;;;;;;;4.85;80.98;101514.75;4976817;28;20125;-52
2021/01/18 06:56:20;;;;;;;2.95;0.93;;;;;;;4.85;81.22;101506.53;4993769;28;20124;-52
2021/01/18 06:59:03;;;;;;;3.65;0.77;;;;;;;4.87;80.88;101500.75;4988619;28;20105;-51
2021/01/18 07:01:35;;;;;;;2.30;0.80;;;;;;;4.85;80.97;101509.25;4994273;28;20046;-51
2021/01/18 07:04:04;;;;;;;3.70;1.07;;;;;;;4.83;80.91;101507.91;4994676;28;20140;-50
2021/01/18 07:06:42;;;;;;;1.42;0.60;;;;;;;4.79;80.93;101491.22;4994183;28;20054;-53
2021/01/18 07:09:14;;;;;;;3.78;0.68;;;;;;;4.78;81.19;101499.75;4994481;28;20053;-51
2021/01/18 07:12:01;;;;;;;6.43;1.25;;;;;;;4.76;81.07;101501.97;4978714;28;20106;-50
2021/01/18 07:14:30;;;;;;;2.22;0.95;;;;;;;4.75;81.62;101494.81;4981318;28;20043;-54
2021/01/18 07:17:06;;;;;;;4.63;0.77;;;;;;;4.73;81.61;101491.56;4987710;28;20100;-50
2021/01/18 07:19:38;;;;;;;6.10;0.73;;;;;;;4.73;81.73;101486.06;4994445;28;20069;-54
2021/01/18 07:22:37;;;;;;;4.97;1.08;;;;;;;4.70;82.18;101486.63;4994582;28;20038;-52
2021/01/18 07:25:24;;;;;;;3.55;1.02;;;;;;;4.69;82.00;101485.00;4993635;28;20053;-53
2021/01/18 07:27:57;;;;;;;5.25;0.98;;;;;;;4.67;81.77;101484.47;4994427;28;20112;-50
2021/01/18 07:30:29;;;;;;;8.20;1.45;;;;;;;4.62;82.07;101474.38;4973941;28;20492;-52
2021/01/18 07:33:09;;;;;;;2.78;0.98;;;;;;;4.58;81.85;101472.50;4986517;28;20053;-50
2021/01/18 07:35:39;;;;;;;10.35;1.20;;;;;;;4.55;81.89;101467.59;4985686;28;20129;-55
2021/01/18 07:38:26;;;;;;;2.90;0.73;;;;;;;4.53;81.91;101467.84;4994205;28;20058;-52
2021/01/18 07:41:06;;;;;;;6.18;0.80;;;;;;;4.53;82.18;101464.28;4993768;28;20042;-53
2021/01/18 07:43:35;;;;;;;5.97;1.20;;;;;;;4.52;82.29;101463.50;4976175;28;20057;-53
2021/01/18 07:46:25;;;;;;;5.30;0.80;;;;;;;4.52;81.94;101458.00;4993360;28;20105;-54
2021/01/18 07:48:57;;;;;;;4.43;1.02;;;;;;;4.55;82.61;101471.16;4989554;28;20042;-52
2021/01/18 07:51:29;;;;;;;5.55;2.03;;;;;;;4.57;82.29;101457.16;4977187;28;20046;-50
2021/01/18 07:53:56;;;;;;;8.30;1.23;;;;;;;4.59;82.27;101444.78;4983206;28;20047;-52
2021/01/18 07:56:27;;;;;;;6.28;1.27;;;;;;;4.62;82.33;101454.34;4992104;28;20105;-55
2021/01/18 07:59:08;;;;;;;5.28;1.00;;;;;;;4.62;82.32;101451.59;4981849;28;20058;-54
2021/01/18 08:01:37;;;;;;;3.22;1.08;;;;;;;4.65;82.47;101445.56;4974118;28;20043;-51
2021/01/18 08:04:25;;;;;;;7.97;1.17;;;;;;;4.64;82.17;101450.22;4988533;28;20447;-50
2021/01/18 08:07:00;;;;;;;;;;;;;;;4.63;82.46;101448.56;4989296;28;20047;-51
2021/01/18 08:09:30;;;;;;;5.05;1.00;;;;;;;4.65;82.29;101451.88;4977071;28;20307;-49
2021/01/18 08:12:35;;;;;;;7.78;1.05;;;;;;;4.64;82.29;101441.97;4993842;28;20126;-53
2021/01/18 08:15:09;;;;;;;8.48;1.23;;;;;;;4.63;82.31;101443.09;4993713;28;20054;-50
2021/01/18 08:17:37;;;;;;;7.57;1.00;;;;;;;4.64;82.04;101439.25;4990149;28;20043;-51
2021/01/18 08:20:13;;;;;;;1.98;0.80;;;;;;;4.62;82.05;101432.41;4986092;28;20117;-53
2021/01/18 08:22:39;;;;;;;1.17;0.80;;;;;;;4.64;82.00;101438.41;4992309;28;20046;-51
2021/01/18 08:25:07;;;;;;;7.75;0.93;;;;;;;4.64;82.18;101425.53;4988631;28;20390;-52
2021/01/18 08:28:00;;;;;;;6.00;1.38;;;;;;;4.66;82.29;101425.25;4978410;28;20267;-59
2021/01/18 08:30:37;;;;;;;5.95;1.00;;;;;;;4.67;82.27;101424.97;4972353;28;20046;-55
2021/01/18 08:33:05;;;;;;;7.88;1.08;;;;;;;4.68;82.28;101426.59;4992301;28;20046;-53
2021/01/18 08:35:45;;;;;;;3.33;1.02;;;;;;;4.68;81.85;101420.28;4992629;28;20061;-53
2021/01/18 08:38:22;;;;;;;7.43;1.27;;;;;;;4.67;81.71;101415.91;4984126;28;20130;-53
2021/01/18 08:40:51;;;;;;;5.85;1.27;;;;;;;4.69;82.04;101408.19;4958487;28;20047;-52
2021/01/18 08:43:21;;;;;;;4.30;1.80;;;;;;;4.69;81.84;101411.75;4987485;28;20050;-50
2021/01/18 08:45:53;;;;;;;6.35;1.42;;;;;;;4.71;81.62;101406.00;4982651;28;20448;-50
2021/01/18 08:48:21;;;;;;;5.20;1.83;;;;;;;4.71;81.82;101398.56;4990214;28;20039;-52
2021/01/18 08:50:47;;;;;;;340.35;152.88;;;;;;;4.73;82.12;101403.78;4988446;28;20160;-53
2021/01/18 08:53:32;;;;;;;131.70;55.70;;;;;;;4.78;82.06;101406.47;4989216;28;20046;-53
2021/01/18 08:56:29;;;;;;;12.38;4.82;;;;;;;4.84;81.83;101408.06;4983751;28;20047;-49
2021/01/18 08:58:57;;;;;;;6.35;1.33;;;;;;;4.86;81.76;101392.94;4960218;28;20082;-55
2021/01/18 09:01:30;;;;;;;6.93;1.48;;;;;;;4.88;81.81;101395.38;4988440;28;20050;-53
2021/01/18 09:04:01;;;;;;;10.90;1.65;;;;;;;4.90;81.86;101393.16;4984642;28;20052;-49
2021/01/18 09:06:28;;;;;;;4.57;1.17;;;;;;;4.90;81.70;101388.50;4988406;28;20539;-53
2021/01/18 09:09:15;;;;;;;7.30;1.80;;;;;;;4.90;81.86;101390.41;4988169;28;20244;-50
2021/01/18 09:11:43;;;;;;;5.90;1.75;;;;;;;4.94;81.94;101388.75;4989792;28;20492;-56
2021/01/18 09:14:10;;;;;;;6.82;1.35;;;;;;;4.97;81.48;101381.84;4976655;28;20058;-51
2021/01/18 09:16:40;;;;;;;6.80;1.40;;;;;;;4.99;81.85;101379.63;4988010;28;20046;-54
2021/01/18 09:19:07;;;;;;;9.10;2.50;;;;;;;5.02;81.76;101374.38;4989533;28;20050;-51
2021/01/18 09:21:35;;;;;;;13.00;2.00;;;;;;;5.04;81.62;101374.06;4988830;28;20047;-50
2021/01/18 09:24:08;;;;;;;7.20;1.50;;;;;;;5.04;81.44;101377.63;4988629;28;20707;-50
2021/01/18 09:26:35;;;;;;;11.73;2.58;;;;;;;5.06;81.61;101369.91;4992267;28;20077;-51
2021/01/18 09:29:03;;;;;;;8.38;2.25;;;;;;;5.11;81.53;101375.34;4966942;28;20465;-52
2021/01/18 09:31:29;;;;;;;9.38;2.25;;;;;;;5.13;81.48;101359.41;4988293;28;20093;-51
2021/01/18 09:33:56;;;;;;;5.18;1.35;;;;;;;5.15;81.40;101367.34;4988998;28;20046;-52
2021/01/18 09:36:28;;;;;;;12.10;2.40;;;;;;;5.16;81.20;101358.84;4984520;28;20042;-51
2021/01/18 09:38:54;;;;;;;10.35;1.52;;;;;;;5.18;81.13;101353.88;4989110;28;20051;-58
2021/01/18 09:41:21;;;;;;;5.45;2.42;;;;;;;5.21;81.21;101358.78;4967651;28;20113;-52
2021/01/18 09:43:48;;;;;;;6.22;1.45;;;;;;;5.22;81.42;101357.63;4970141;28;20084;-51
2021/01/18 09:46:15;;;;;;;7.40;1.77;;;;;;;5.24;81.15;101358.16;4983309;28;20097;-53
2021/01/18 09:48:48;;;;;;;4.40;1.80;;;;;;;5.27;80.99;101354.03;4988959;28;20551;-54
2021/01/18 09:51:15;;;;;;;3.42;0.98;;;;;;;5.27;81.13;101349.34;4988617;28;20416;-50
2021/01/18 09:53:43;;;;;;;8.40;2.00;;;;;;;5.31;81.41;101344.06;4987896;28;20504;-50
2021/01/18 09:56:15;;;;;;;7.32;1.35;;;;;;;5.34;81.38;101355.31;4982596;28;20050;-53
2021/01/18 09:58:44;;;;;;;;;;;;;;;5.36;81.22;101350.31;4971189;28;20062;-53
2021/01/18 10:01:16;;;;;;;5.40;1.30;;;;;;;5.40;81.32;101342.31;4983078;28;19984;-54
2021/01/18 10:04:05;;;;;;;7.25;1.45;;;;;;;5.44;81.48;101348.84;4983231;28;20051;-50
2021/01/18 10:06:35;;;;;;;6.97;2.20;;;;;;;5.48;81.47;101339.69;4982466;28;20047;-53
2021/01/18 10:09:07;;;;;;;7.95;2.40;;;;;;;5.51;81.31;101339.09;4985248;28;20038;-55
2021/01/18 10:11:47;;;;;;;8.15;2.42;;;;;;;5.54;81.50;101344.00;4989602;28;20407;-50
2021/01/18 10:14:22;;;;;;;11.30;2.08;;;;;;;5.57;81.21;101347.28;4994241;28;20050;-51
2021/01/18 10:17:15;;;;;;;7.25;2.50;;;;;;;5.59;80.87;101334.88;4991232;28;20043;-55
2021/01/18 10:19:42;;;;;;;7.95;2.35;;;;;;;5.64;81.04;101339.50;4974834;28;20073;-54
2021/01/18 10:22:18;;;;;;;17.35;3.42;;;;;;;5.66;80.69;101327.09;4991815;28;20082;-55
2021/01/18 10:24:55;;;;;;;7.43;1.92;;;;;;;5.72;80.20;101331.38;4977446;28;20034;-57
2021/01/18 10:27:27;;;;;;;4.55;1.80;;;;;;;5.75;80.38;101332.72;4992188;28;20057;-55
2021/01/18 10:30:27;;;;;;;8.55;2.35;;;;;;;5.76;80.11;101326.09;4995356;28;20139;-53
2021/01/18 10:32:55;;;;;;;11.25;2.28;;;;;;;5.79;80.46;101328.25;4963653;28;20089;-51
2021/01/18 10:35:35;;;;;;;7.97;2.33;;;;;;;5.82;80.18;101333.16;4994686;28;20518;-53
2021/01/18 10:38:19;;;;;;;7.00;1.77;;;;;;;5.84;79.99;101322.69;4994469;28;20455;-51
2021/01/18 10:41:02;;;;;;;9.05;1.73;;;;;;;5.86;79.92;101323.22;4977081;28;20047;-51
2021/01/18 10:43:43;;;;;;;6.13;1.50;;;;;;;5.89;80.42;101328.13;4989246;28;20050;-52
2021/01/18 10:46:18;;;;;;;10.23;2.67;;;;;;;5.90;80.24;101325.09;4974895;28;20043;-54
2021/01/18 10:48:58;;;;;;;10.20;1.60;;;;;;;5.94;80.04;101308.81;4963098;28;20389;-54
2021/01/18 10:51:28;;;;;;;11.20;3.00;;;;;;;5.99;80.04;101317.78;4994404;28;20042;-52
2021/01/18 10:54:01;;;;;;;16.13;3.33;;;;;;;6.01;80.02;101304.53;4995859;28;20066;-55
2021/01/18 10:56:45;;;;;;;7.80;2.08;;;;;;;6.07;80.21;101302.53;4990953;28;20561;-54
2021/01/18 10:59:12;;;;;;;6.72;1.80;;;;;;;6.12;80.00;101294.19;4994984;28;20062;-52
2021/01/18 11:01:56;;;;;;;15.02;3.17;;;;;;;6.14;80.20;101286.47;4977862;28;20050;-56
2021/01/18 11:04:23;;;;;;;6.15;2.63;;;;;;;6.17;80.08;101285.06;4995097;28;20046;-54
2021/01/18 11:06:51;;;;;;;9.77;2.80;;;;;;;6.19;80.18;101277.31;4995424;28;20050;-49
2021/01/18 11:09:29;;;;;;;15.65;3.30;;;;;;;6.20;79.93;101279.75;4975575;28;20057;-53
2021/01/18 11:11:58;;;;;;;8.70;2.05;;;;;;;6.23;80.13;101273.66;4992180;28;20062;-52
2021/01/18 11:14:26;;;;;;;9.77;1.80;;;;;;;6.26;80.00;101277.72;4995928;28;20043;-52
2021/01/18 11:16:57;;;;;;;13.13;2.28;;;;;;;6.28;79.98;101270.81;4977254;28;20042;-51
2021/01/18 11:19:23;;;;;;;13.88;2.13;;;;;;;6.31;80.06;101275.69;4995187;28;20100;-51
2021/01/18 11:21:51;;;;;;;7.28;2.20;;;;;;;6.33;80.08;101261.66;4993566;28;20038;-54
2021/01/18 11:24:18;;;;;;;11.10;2.40;;;;;;;6.35;79.84;101271.22;4991440;28;20049;-54
2021/01/18 11:26:52;;;;;;;9.73;2.00;;;;;;;6.39;79.63;101255.75;4974279;28;20468;-52
2021/01/18 11:29:19;;;;;;;9.60;2.03;;;;;;;6.40;79.73;101257.38;4974666;28;20046;-55
2021/01/18 11:31:48;;;;;;;14.35;3.03;;;;;;;6.42;79.87;101255.13;4973798;28;20047;-55
2021/01/18 11:34:15;;;;;;;11.90;2.22;;;;;;;6.45;79.65;101262.78;4991303;28;20061;-56
2021/01/18 11:36:43;;;;;;;10.98;2.10;;;;;;;6.46;79.49;101253.38;4991361;28;20042;-53
2021/01/18 11:39:10;;;;;;;15.90;2.55;;;;;;;6.48;79.48;101253.94;4990347;28;20390;-52
2021/01/18 11:41:37;;;;;;;6.65;2.03;;;;;;;6.48;79.55;101242.91;4988328;28;20097;-57
2021/01/18 11:44:05;;;;;;;9.50;2.42;;;;;;;6.50;79.61;101235.16;4981462;28;20042;-56
2021/01/18 11:46:35;;;;;;;14.80;3.83;;;;;;;6.51;79.54;101220.28;4990429;28;20050;-52
2021/01/18 11:49:02;;;;;;;10.13;2.70;;;;;;;6.56;79.55;101216.63;4989954;28;20488;-54
2021/01/18 11:51:29;;;;;;;15.13;2.83;;;;;;;6.58;79.70;101215.19;4991393;28;20125;-50
2021/01/18 11:53:59;;;;;;;10.85;3.20;;;;;;;6.61;79.83;101211.03;4991529;28;20053;-54
2021/01/18 11:56:29;;;;;;;7.88;2.67;;;;;;;6.63;79.55;101217.84;4990264;28;20038;-53
2021/01/18 11:58:58;;;;;;;12.90;2.75;;;;;;;6.69;79.91;101199.28;4984545;28;20061;-49